Weather observations for the past three days for
Versailles Darke County Airport
Imperial (Metric)
Date Time (edt) Wind (mph) Vis. (mi.) Weather Sky Cond. Temperature (ºF) Relative Humidity Wind Chill (°F) Heat Index (°F) Pressure Precipitation (in)
Air Dwpt 6 hour altimeter (in) sea level (mb) 1 hr 3 hr 6 hr
Max. Min.
01 11:55 SW 8 10.00 A Few Clouds FEW110 86 75.2 70% 95 30.07 0.0
01 11:35 SW 8 10.00 Fair CLR 86 75.2 70% 95 30.07 0.0
01 11:15 SW 6 10.00 Partly Cloudy SCT100 84.2 80.6 89% 98 30.08 0.0
01 10:55 SW 6 10.00 Mostly Cloudy BKN100 80.6 78.8 94% 88 30.08 0.0
01 10:15 SW 8 10.00 Mostly Cloudy BKN110 78.8 78.8 100% 83 30.08 0.0
01 09:55 SW 8 10.00 Mostly Cloudy BKN100 78.8 78.8 100% 83 30.08 0.0
01 09:35 SW 8 10.00 Mostly Cloudy BKN100 78.8 78.8 100% 83 30.08 0.0
01 09:15 SW 9 10.00 Overcast OVC100 77 77 100% 78 30.08 0.0
01 08:55 SW 8 10.00 Mostly Cloudy BKN100 77 77 100% 78 30.08 0.0
01 08:35 SW 7 10.00 Overcast OVC100 75.2 75.2 100% 73 30.08 0.0
01 08:15 SW 7 10.00 Overcast OVC110 75.2 75.2 100% 73 30.08 0.0
01 07:55 SW 8 10.00 Overcast OVC100 75.2 75.2 76.8 73.6 100% 73 30.08 0.0
01 07:35 SW 7 10.00 Mostly Cloudy BKN100 BKN120 75.2 75.2 100% 73 30.07 0.0
01 07:15 SW 7 10.00 Mostly Cloudy BKN110 73.4 73.4 100% 30.06 0.0
01 06:55 SW 8 10.00 Overcast OVC110 73.4 73.4 100% 30.06 0.0
01 06:35 SW 7 10.00 Mostly Cloudy BKN110 75.2 75.2 100% 73 30.06 0.0
01 06:15 SW 6 10.00 Overcast OVC095 75.2 75.2 100% 73 30.06 0.0
01 05:55 SW 7 10.00 Mostly Cloudy BKN095 75.2 75.2 100% 73 30.05 0.0
01 05:35 SW 7 10.00 Fair CLR 73.4 73.4 100% 30.05 0.0
01 05:15 SW 8 10.00 Fair CLR 75.2 73.4 94% 74 30.05 0.0
01 04:55 SW 7 10.00 Fair CLR 75.2 75.2 100% 73 30.04 0.0
01 04:35 SW 7 10.00 Fair CLR 75.2 75.2 100% 73 30.04 0.0
01 04:15 SW 6 10.00 A Few Clouds FEW110 75.2 75.2 100% 73 30.04 0.0
01 03:55 SW 6 10.00 Mostly Cloudy BKN110 73.4 73.4 100% 30.04 0.0
01 03:35 S 6 10.00 A Few Clouds FEW100 75.2 75.2 100% 73 30.04 0.0
01 03:15 S 7 10.00 A Few Clouds FEW100 75.2 75.2 100% 73 30.04 0.0
01 02:55 S 5 10.00 Mostly Cloudy BKN100 75.2 75.2 100% 73 30.04 0.0
01 02:35 S 3 10.00 Overcast OVC100 77 77 100% 78 30.04 0.0
01 02:15 Vrbl 5 10.00 Mostly Cloudy BKN100 77 77 100% 78 30.04 0.0
01 01:55 SW 6 10.00 A Few Clouds FEW100 77 77 82.6 76.8 100% 78 30.05 0.0
01 01:35 SW 6 10.00 Fair CLR 77 77 100% 78 30.05 0.0
01 01:15 SW 6 10.00 Fair CLR 78.8 78.8 100% 83 30.04 0.0
01 00:55 SW 9 10.00 Partly Cloudy FEW044 SCT090 SCT120 77 77 100% 78 30.02 0.0 0.01
01 00:35 SW 10 G 17 10.00 Light Rain SCT048 BKN070 BKN080 78.8 78.8 100% 83 30.03 0.0
01 00:15 S 15 10.00 A Few Clouds FEW070 FEW085 FEW110 78.8 78.8 100% 83 30.01 0.0
31 23:55 SW 7 10.00 Fair CLR 78.8 78.8 100% 83 30.05 0.0
31 23:35 SW 6 10.00 Partly Cloudy FEW050 SCT075 SCT110 78.8 78.8 100% 83 30.05 0.0
31 23:15 S 12 G 17 10.00 Mostly Cloudy SCT060 BKN075 BKN095 78.8 78.8 100% 83 30.03 0.0
31 22:55 S 6 10.00 A Few Clouds FEW120 78.8 78.8 100% 83 30.05 0.0
31 22:35 S 6 10.00 A Few Clouds FEW120 77 77 100% 78 30.06 0.0
31 22:15 S 5 10.00 Partly Cloudy SCT120 78.8 78.8 100% 83 30.06 0.0
31 21:55 S 5 10.00 A Few Clouds FEW110 77 77 100% 78 30.07 0.0
31 21:35 Vrbl 3 10.00 A Few Clouds FEW120 78.8 78.8 100% 83 30.07 0.0
31 21:15 SE 3 10.00 Partly Cloudy SCT120 78.8 78.8 100% 83 30.06 0.0
31 20:55 SE 2 10.00 Mostly Cloudy BKN120 78.8 78.8 100% 83 30.06 0.0
31 20:35 SE 3 10.00 Mostly Cloudy BKN120 77 77 100% 78 30.06 0.0
31 20:15 SE 5 10.00 Fair CLR 78.8 77 94% 83 30.05 0.0
31 19:35 Calm 10.00 Fair CLR 82.4 75.2 79% 89 30.06 0.0
31 19:15 SW 5 10.00 Fair CLR 84.2 73.4 70% 91 30.04 0.0
31 18:55 SW 7 10.00 Fair CLR 86 71.6 62% 92 30.04 0.0
31 18:35 SW 6 10.00 Fair CLR 86 71.6 62% 92 30.04 0.0
31 18:15 SW 10 10.00 Fair CLR 87.8 71.6 59% 94 30.04 0.0
31 17:55 SW 9 G 16 10.00 Fair CLR 87.8 71.6 59% 94 30.04 0.0
31 17:35 SW 9 10.00 Fair CLR 87.8 73.4 62% 96 30.03 0.0
31 17:15 SW 9 G 18 10.00 Fair CLR 87.8 73.4 62% 96 30.03 0.0
31 16:55 SW 12 G 17 10.00 Fair CLR 86 73.4 66% 93 30.02 0.0
31 16:35 S 12 G 20 10.00 Fair CLR 86 75.2 70% 95 30.02 0.0
31 16:15 SW 8 10.00 Fair CLR 84.2 75.2 74% 92 30.06 0.0
31 15:55 SW 7 10.00 Fair CLR 84.2 73.4 70% 91 30.07 0.0
31 15:35 SW 7 10.00 Fair CLR 84.2 73.4 70% 91 30.07 0.0
31 15:15 SW 9 10.00 Fair CLR 84.2 71.6 66% 90 30.08 0.0
31 14:55 SW 12 10.00 Fair CLR 86 73.4 66% 93 30.09 0.0
31 14:35 W 6 10.00 Fair CLR 86 73.4 66% 93 30.1 0.0
31 14:15 W 6 10.00 Fair CLR 84.2 75.2 74% 92 30.11 0.0
31 13:55 SW 9 10.00 Fair CLR 84.2 75.2 84.9 71.1 74% 92 30.11 0.0
31 13:35 SW 7 10.00 Fair CLR 82.4 75.2 79% 89 30.12 0.0
31 13:15 SW 5 10.00 Fair CLR 82.4 75.2 79% 89 30.12 0.0
31 12:55 W 6 10.00 Fair CLR 84.2 75.2 74% 92 30.12 0.0
31 12:35 SW 7 10.00 Fair CLR 82.4 75.2 79% 89 30.12 0.0
31 12:15 SW 7 10.00 Fair CLR 82.4 75.2 79% 89 30.12 0.0
31 11:55 SW 7 10.00 Fair CLR 82.4 75.2 79% 89 30.12 0.0
31 11:35 W 8 10.00 Fair CLR 82.4 75.2 79% 89 30.12 0.0
31 11:15 SW 8 10.00 Fair CLR 84.2 75.2 74% 92 30.12 0.0
31 10:55 SW 6 10.00 Fair CLR 82.4 75.2 79% 89 30.11 0.0
31 10:35 SW 6 10.00 Fair CLR 82.4 73.4 74% 88 30.11 0.0
31 10:15 SW 8 10.00 Fair CLR 82.4 71.6 70% 87 30.1 0.0
31 09:55 SW 6 10.00 Fair CLR 80.6 75.2 84% 86 30.1 0.0
31 09:35 SW 3 10.00 Fair CLR 77 77 100% 78 30.11 0.0
31 09:15 SW 2 10.00 Fair CLR 75.2 75.2 100% 73 30.11 0.0
31 08:55 Vrbl 3 10.00 Fair CLR 73.4 73.4 100% 30.1 0.0
31 08:35 S 2 10.00 Fair CLR 73.4 73.4 100% 30.1 0.0
31 08:15 S 3 10.00 Fair CLR 71.6 71.6 100% 30.1 0.0
31 07:55 Vrbl 2 10.00 Fair CLR 71.6 71.6 71.8 68.9 100% 30.1 0.0
31 07:35 SW 3 10.00 Fair CLR 71.6 71.6 100% 30.09 0.0
31 07:15 S 2 10.00 Fair CLR 71.6 71.6 100% 30.09 0.0
31 06:55 S 3 10.00 Fair CLR 69.8 69.8 100% 30.09 0.0
31 06:35 S 2 10.00 Fair CLR 69.8 69.8 100% 30.08 0.0
31 06:15 S 3 10.00 Fair CLR 71.6 71.6 100% 30.08 0.0
31 05:55 S 5 10.00 Fair CLR 69.8 69.8 100% 30.08 0.0
31 05:35 SE 3 10.00 Fair CLR 69.8 69.8 100% 30.08 0.0
31 05:15 SE 3 10.00 Fair CLR 69.8 69.8 100% 30.08 0.0
31 04:55 SE 3 9.00 Fair CLR 69.8 69.8 100% 30.08 0.0
31 04:35 SE 1 10.00 A Few Clouds FEW110 69.8 69.8 100% 30.08 0.0
31 04:15 Calm 10.00 Mostly Cloudy BKN110 69.8 69.8 100% 30.08 0.0
31 03:55 Vrbl 1 10.00 A Few Clouds FEW110 69.8 69.8 100% 30.07 0.0
31 03:35 S 3 10.00 Fair CLR 71.6 71.6 100% 30.07 0.0
31 03:15 S 5 10.00 Fair CLR 69.8 69.8 100% 30.07 0.0
31 02:55 SE 1 10.00 Fair CLR 69.8 69.8 100% 30.08 0.0
31 02:35 S 2 10.00 Fair CLR 71.6 71.6 100% 30.09 0.0
31 02:15 S 3 10.00 Fair CLR 71.6 71.6 100% 30.09 0.0
31 01:55 S 3 10.00 Fair CLR 69.8 69.8 76.6 70.3 100% 30.09 0.0
31 01:15 S 5 10.00 A Few Clouds FEW100 73.4 73.4 100% 30.1 0.0
31 00:56 SE 6 10.00 A Few Clouds FEW100 71.6 71.6 100% 30.09 0.0
31 00:35 SE 6 10.00 Fair CLR 71.6 71.6 100% 30.09 0.0
31 00:15 SE 6 10.00 Fair CLR 71.6 71.6 100% 30.09 0.0
30 23:55 SE 7 10.00 Fair CLR 73.4 73.4 100% 30.08 0.0
30 23:35 SE 8 10.00 Fair CLR 73.4 73.4 100% 30.09 0.0
30 23:15 S 6 10.00 Fair CLR 73.4 73.4 100% 30.09 0.0
30 22:55 S 6 10.00 Fair CLR 73.4 73.4 100% 30.1 0.0
30 22:35 SE 6 10.00 Fair CLR 71.6 71.6 100% 30.1 0.0
30 22:15 SE 5 8.00 Fair CLR 71.6 71.6 100% 30.09 0.0
30 21:55 SE 5 10.00 Fair CLR 71.6 71.6 100% 30.09 0.0
30 21:35 SE 2 10.00 Fair CLR 71.6 71.6 100% 30.09 0.0
30 21:15 SE 5 10.00 Fair CLR 71.6 71.6 100% 30.08 0.0
30 20:55 SE 3 10.00 Fair CLR 71.6 71.6 100% 30.09 0.0
30 20:35 SE 2 10.00 Fair CLR 73.4 73.4 100% 30.08 0.0
30 20:15 SE 2 10.00 Fair CLR 75.2 75.2 100% 73 30.09 0.0
30 19:55 Calm 10.00 Fair CLR 77 75.2 83.8 76.1 94% 78 30.08 0.0
30 19:35 NW 2 10.00 Fair CLR 77 73.4 89% 78 30.09 0.0
30 19:15 SW 2 10.00 Fair CLR 78.8 69.8 74% 81 30.09 0.0
30 18:55 W 2 10.00 Fair CLR 80.6 69.8 70% 84 30.08 0.0
30 18:35 SW 5 10.00 Fair CLR 80.6 68 66% 83 30.07 0.0
30 18:15 SW 6 10.00 Fair CLR 82.4 68 62% 85 30.07 0.0
30 17:55 SW 7 10.00 Fair CLR 82.4 68 62% 85 30.07 0.0
30 17:15 SW 12 G 18 10.00 Fair CLR 82.4 68 62% 85 30.07 0.0
30 16:55 SW 12 G 20 10.00 Fair CLR 82.4 69.8 66% 86 30.07 0.0
30 16:35 SW 9 G 20 10.00 Fair CLR 82.4 69.8 66% 86 30.07 0.0
30 16:15 SW 9 G 16 10.00 Fair CLR 82.4 69.8 66% 86 30.07 0.0
30 15:55 S 7 10.00 Fair CLR 80.6 71.6 74% 85 30.07 0.0
30 15:35 S 5 10.00 Fair CLR 80.6 71.6 74% 85 30.08 0.0
30 15:15 SE 8 G 18 10.00 A Few Clouds FEW050 FEW075 FEW110 77 71.6 83% 78 30.07 0.0
30 14:55 SE 12 8.00 Light Rain FEW060 SCT065 BKN110 77 71.6 83% 78 30.09 0.0
30 14:35 SE 5 10.00 Partly Cloudy SCT110 78.8 69.8 74% 81 30.14 0.0
30 14:15 Calm 10.00 Fair CLR 80.6 69.8 70% 84 30.15 0.0
30 13:55 NW 3 10.00 A Few Clouds FEW110 80.6 69.8 82.2 66 70% 84 30.16 0.0
30 13:35 NW 5 10.00 A Few Clouds FEW110 80.6 69.8 70% 84 30.17 0.0
30 13:15 NW 5 10.00 A Few Clouds FEW110 82.4 69.8 66% 86 30.17 0.0
30 12:55 W 6 10.00 Fair CLR 80.6 69.8 70% 84 30.17 0.0
30 12:35 W 3 10.00 A Few Clouds FEW110 80.6 71.6 74% 85 30.18 0.0
30 12:15 W 3 10.00 Mostly Cloudy BKN110 78.8 71.6 79% 82 30.18 0.0
30 11:55 NW 3 10.00 Overcast OVC110 78.8 73.4 84% 82 30.18 0.0
30 11:35 NW 3 10.00 Mostly Cloudy BKN110 78.8 73.4 84% 82 30.17 0.0
30 11:15 W 2 10.00 Partly Cloudy SCT120 78.8 71.6 79% 82 30.16 0.0
30 10:55 SW 6 10.00 Fair CLR 78.8 71.6 79% 82 30.13 0.0
30 10:35 SW 5 10.00 Fair CLR 77 69.8 79% 79 30.12 0.0
30 10:15 SW 5 10.00 Fair CLR 77 73.4 89% 78 30.12 0.0
30 09:55 SW 5 10.00 Fair CLR 75.2 73.4 94% 74 30.12 0.0
30 09:35 Vrbl 5 10.00 Fair CLR 75.2 73.4 94% 74 30.11 0.0
30 09:15 S 6 10.00 Fair CLR 71.6 71.6 100% 30.11 0.0
30 08:55 S 7 10.00 Fair CLR 69.8 69.8 100% 30.12 0.0
30 08:35 SE 5 5.00 Fog/Mist CLR 68 68 100% 30.12 0.0
30 07:55 NE 2 4.00 Light Rain Fog/Mist FEW065 SCT100 BKN120 66.2 66.2 66.7 64.2 100% 30.13 0.0
30 07:35 Calm 5.00 Fog/Mist OVC110 66.2 66.2 100% 30.13 0.0
30 07:15 SE 2 5.00 Fog/Mist OVC100 66.2 66.2 100% 30.13 0.0
30 06:55 Calm 7.00 Fog/Mist OVC100 64.4 64.4 100% 30.13 0.0
30 06:35 N 1 5.00 Fog/Mist BKN100 64.4 64.4 100% 30.12 0.0
30 06:15 SE 2 6.00 Fog/Mist CLR 66.2 66.2 100% 30.12 0.0
30 05:55 SE 2 1.25 Light Drizzle Fog/Mist CLR 64.4 64.4 100% 30.12 0.0
30 05:35 S 2 1.00 Fog/Mist CLR 66.2 66.2 100% 30.11 0.0
30 05:15 S 2 8.00 Fair CLR 66.2 66.2 100% 30.11 0.0
30 04:55 S 2 10.00 A Few Clouds FEW120 66.2 66.2 100% 30.11 0.0
30 04:35 S 2 10.00 Mostly Cloudy BKN110 66.2 66.2 100% 30.12 0.0
30 04:15 S 2 5.00 Fog/Mist BKN110 66.2 66.2 100% 30.12 0.0
30 03:55 SE 2 5.00 Fog/Mist FEW075 FEW090 BKN110 66.2 66.2 100% 30.12 0.0
30 03:35 SE 3 8.00 Partly Cloudy SCT100 66.2 66.2 100% 30.12 0.0
30 03:15 SE 1 9.00 Partly Cloudy SCT100 66.2 66.2 100% 30.12 0.0
30 02:55 SE 1 5.00 Fog/Mist SCT110 66.2 66.2 100% 30.13 0.0
30 02:35 S 1 10.00 A Few Clouds FEW120 66.2 66.2 100% 30.13 0.0
30 02:15 Calm 9.00 Fair CLR 64.4 64.4 100% 30.13 0.0
30 01:55 SW 1 8.00 Fair CLR 64.4 64.4 75 63.9 100% 30.13 0.0
30 01:35 SE 1 7.00 Fair CLR 64.4 64.4 100% 30.14 0.0
30 01:15 E 2 9.00 Fair CLR 64.4 64.4 100% 30.13 0.0
30 00:55 Calm 7.00 Fog/Mist CLR 64.4 64.4 100% 30.14 0.0
30 00:35 Calm 10.00 Fair CLR 66.2 66.2 100% 30.14 0.0
30 00:15 S 1 9.00 Fair CLR 66.2 66.2 100% 30.13 0.0
29 23:55 SE 3 10.00 Fair CLR 66.2 66.2 100% 30.12 0.0
29 23:35 Calm 9.00 Fair CLR 66.2 66.2 100% 30.13 0.0
29 23:15 SW 2 9.00 Fair CLR 68 68 100% 30.13 0.0
29 22:55 SE 2 6.00 Fog/Mist CLR 66.2 66.2 100% 30.13 0.0
29 22:35 SE 3 10.00 Fair CLR 66.2 66.2 100% 30.13 0.0
29 22:15 SE 1 10.00 Fair CLR 66.2 66.2 100% 30.13 0.0
29 21:55 SW 1 10.00 Fair CLR 68 68 100% 30.13 0.0
29 21:35 SE 1 10.00 Fair CLR 68 68 100% 30.12 0.0
29 21:15 SE 2 10.00 Fair CLR 68 68 100% 30.12 0.0
29 20:55 SE 5 10.00 Fair CLR 69.8 69.8 100% 30.11 0.0
29 20:35 W 2 4.00 Fog/Mist CLR 69.8 69.8 100% 30.12 0.0
29 20:15 W 2 10.00 Fair CLR 73.4 73.4 100% 30.12 0.0
29 19:55 SW 1 10.00 Fair CLR 75.2 73.4 82.9 74.3 94% 74 30.12 0.0
29 19:35 SW 2 10.00 Fair CLR 77 68 74% 79 30.12 0.0
29 19:15 SW 2 10.00 Fair CLR 77 68 74% 79 30.13 0.0
29 18:55 S 2 10.00 Fair CLR 78.8 66.2 65% 81 30.13 0.0
29 18:35 S 2 10.00 Fair CLR 78.8 66.2 65% 81 30.13 0.0
29 18:15 S 3 10.00 Fair CLR 78.8 64.4 61% 81 30.13 0.0
29 17:55 S 5 10.00 Fair CLR 80.6 64.4 58% 82 30.13 0.0
29 17:35 S 3 10.00 Fair CLR 80.6 62.6 54% 82 30.14 0.0
29 17:15 S 5 10.00 Fair CLR 80.6 64.4 58% 82 30.13 0.0
29 16:55 Vrbl 3 10.00 A Few Clouds FEW050 80.6 64.4 58% 82 30.14 0.0
29 16:35 S 6 10.00 Mostly Cloudy BKN050 80.6 64.4 58% 82 30.14 0.0
29 16:15 SW 2 10.00 Mostly Cloudy BKN050 BKN060 80.6 62.6 54% 82 30.15 0.0
29 15:55 S 3 10.00 Partly Cloudy SCT050 80.6 62.6 54% 82 30.15 0.0
29 15:35 S 6 10.00 A Few Clouds FEW049 80.6 62.6 54% 82 30.16 0.0
29 15:15 SW 8 10.00 A Few Clouds FEW048 FEW050 82.4 64.4 55% 84 30.16 0.0
29 14:55 S 7 10.00 A Few Clouds FEW048 FEW050 80.6 62.6 54% 82 30.17 0.0
29 14:35 S 8 10.00 A Few Clouds FEW050 82.4 62.6 51% 83 30.18 0.0
29 14:15 SW 6 10.00 A Few Clouds FEW050 82.4 64.4 55% 84 30.18 0.0
29 13:55 SW 9 10.00 Mostly Cloudy BKN050 82.4 64.4 81.1 57.2 55% 84 30.19 0.0
29 13:35 E 6 10.00 Partly Cloudy FEW042 SCT050 80.6 64.4 58% 82 30.19 0.0
29 13:15 Vrbl 6 10.00 A Few Clouds FEW041 FEW050 80.6 64.4 58% 82 30.2 0.0
29 12:55 Vrbl 3 10.00 A Few Clouds FEW050 80.6 64.4 58% 82 30.2 0.0
29 12:35 SW 5 10.00 Fair CLR 78.8 66.2 65% 81 30.21 0.0
29 12:15 Vrbl 3 10.00 Fair CLR 78.8 66.2 65% 81 30.22 0.0
Date Time (edt) Wind (mph) Vis. (mi.) Weather Sky Cond. Air Dwpt Max. Min. Relative Humidity Wind Chill (°F) Heat Index (°F) altimeter (in) sea level (mb) 1 hr 3 hr 6 hr
6 hour
Temperature (ºF) Pressure Precipitation (in)